Time;durP1;ratioP1;P1;durP2;ratioP2;P2;SDS_P1;SDS_P2;PMS_P1;PMS_P2;Temp;Humidity;BMP_temperature;BMP_pressure;BME280_temperature;BME280_humidity;BME280_pressure;Samples;Min_cycle;Max_cycle;Signal;HPM_P1;HPM_P2
2023/10/25 00:00:39;;;;;;;8.68;2.85;;;11.20;99.90;;;;;;5110483;28;20119;-66
2023/10/25 00:03:04;;;;;;;10.00;2.50;;;11.20;99.90;;;;;;5098198;28;20039;-67
2023/10/25 00:05:33;;;;;;;5.28;2.40;;;11.10;99.90;;;;;;5109031;28;20020;-66
2023/10/25 00:07:58;;;;;;;10.18;2.70;;;11.00;99.90;;;;;;5104954;28;20080;-66
2023/10/25 00:10:24;;;;;;;9.18;2.30;;;11.00;99.90;;;;;;5101315;28;20418;-66
2023/10/25 00:12:50;;;;;;;11.55;2.60;;;11.00;99.90;;;;;;5111252;28;20065;-66
2023/10/25 00:15:15;;;;;;;10.50;2.45;;;10.90;99.90;;;;;;5097191;28;20034;-66
2023/10/25 00:17:41;;;;;;;9.57;2.70;;;10.80;99.90;;;;;;5105216;28;20024;-65
2023/10/25 00:20:07;;;;;;;7.97;2.30;;;10.80;99.90;;;;;;5105639;28;20380;-66
2023/10/25 00:22:32;;;;;;;10.93;2.88;;;10.80;99.90;;;;;;5099849;28;20091;-66
2023/10/25 00:24:58;;;;;;;7.70;2.63;;;10.80;99.90;;;;;;5111164;28;20489;-66
2023/10/25 00:27:23;;;;;;;12.68;3.17;;;10.80;99.90;;;;;;5099784;28;20024;-66
2023/10/25 00:29:49;;;;;;;9.82;3.10;;;10.80;99.90;;;;;;5105946;28;20035;-65
2023/10/25 00:32:14;;;;;;;10.20;2.63;;;10.70;99.90;;;;;;5103021;28;20059;-66
2023/10/25 00:34:41;;;;;;;14.00;2.90;;;10.70;99.90;;;;;;5105511;28;20062;-66
2023/10/25 00:37:07;;;;;;;10.90;2.63;;;10.70;99.90;;;;;;5106062;28;20031;-67
2023/10/25 00:39:32;;;;;;;12.00;3.45;;;10.70;99.90;;;;;;5103784;28;20498;-66
2023/10/25 00:41:58;;;;;;;9.65;2.97;;;10.70;99.90;;;;;;5100394;28;20026;-66
2023/10/25 00:44:23;;;;;;;14.23;3.50;;;10.60;99.90;;;;;;5103458;28;20054;-66
2023/10/25 00:46:49;;;;;;;13.73;4.05;;;10.70;99.90;;;;;;5104324;28;20026;-66
2023/10/25 00:49:16;;;;;;;7.35;3.10;;;10.60;99.90;;;;;;5106358;27;20023;-66
2023/10/25 00:51:42;;;;;;;9.65;3.47;;;10.70;99.90;;;;;;5103001;28;20044;-65
2023/10/25 00:54:08;;;;;;;9.95;3.10;;;10.70;99.90;;;;;;5093356;28;20083;-66
2023/10/25 00:56:34;;;;;;;9.52;3.83;;;10.70;99.90;;;;;;5109075;28;20069;-65
2023/10/25 00:59:00;;;;;;;11.07;2.75;;;10.70;99.90;;;;;;5096942;28;20020;-65
2023/10/25 01:01:28;;;;;;;9.75;3.10;;;10.70;99.90;;;;;;5108338;28;20027;-65
2023/10/25 01:03:54;;;;;;;7.57;2.95;;;10.60;99.90;;;;;;5102720;28;20122;-65
2023/10/25 01:06:20;;;;;;;11.65;3.25;;;10.60;99.90;;;;;;5100257;28;20027;-66
2023/10/25 01:08:45;;;;;;;11.93;3.40;;;10.60;99.90;;;;;;5110397;28;20027;-65
2023/10/25 01:11:11;;;;;;;13.02;3.90;;;10.60;99.90;;;;;;5080538;28;20039;-65
2023/10/25 01:13:37;;;;;;;11.27;3.88;;;10.50;99.90;;;;;;5106686;28;20544;-65
2023/10/25 01:16:04;;;;;;;13.63;4.15;;;10.50;99.90;;;;;;5103784;28;20063;-65
2023/10/25 01:18:30;;;;;;;12.27;4.47;;;10.50;99.90;;;;;;5099228;28;20063;-65
2023/10/25 01:20:55;;;;;;;11.95;5.10;;;10.50;99.90;;;;;;5110301;28;20104;-65
2023/10/25 01:23:21;;;;;;;16.70;4.80;;;10.50;99.90;;;;;;5098260;28;20019;-66
2023/10/25 01:25:47;;;;;;;14.82;5.20;;;10.40;99.90;;;;;;5113822;28;20023;-66
2023/10/25 01:28:12;;;;;;;14.45;6.20;;;10.40;99.90;;;;;;5101658;28;20423;-65
2023/10/25 01:30:39;;;;;;;18.10;6.20;;;10.40;99.90;;;;;;5108293;28;20433;-65
2023/10/25 01:33:05;;;;;;;16.45;6.78;;;10.40;99.90;;;;;;5096666;28;20043;-65
2023/10/25 01:35:31;;;;;;;14.60;7.05;;;10.40;99.90;;;;;;5106910;28;20074;-66
2023/10/25 01:37:57;;;;;;;17.40;8.25;;;10.40;99.90;;;;;;5103282;28;20115;-65
2023/10/25 01:40:22;;;;;;;18.55;7.90;;;10.40;99.90;;;;;;5100053;28;20035;-66
2023/10/25 01:42:51;;;;;;;22.08;8.63;;;10.40;99.90;;;;;;5109944;28;20019;-65
2023/10/25 01:45:16;;;;;;;23.90;8.85;;;10.30;99.90;;;;;;5097238;28;20375;-66
2023/10/25 01:47:42;;;;;;;18.35;8.93;;;10.30;99.90;;;;;;5105332;28;20039;-66
2023/10/25 01:50:08;;;;;;;17.50;8.38;;;10.30;99.90;;;;;;5104560;28;20035;-65
2023/10/25 01:52:34;;;;;;;20.60;8.88;;;10.30;99.90;;;;;;5098288;28;20087;-65
2023/10/25 01:54:59;;;;;;;16.65;8.35;;;10.20;99.90;;;;;;5094618;28;20028;-65
2023/10/25 01:57:25;;;;;;;17.85;8.73;;;10.20;99.90;;;;;;5107702;28;20027;-66
2023/10/25 01:59:50;;;;;;;21.13;9.27;;;10.20;99.90;;;;;;5102105;28;20024;-66
2023/10/25 02:02:16;;;;;;;20.00;9.50;;;10.20;99.90;;;;;;5100702;28;20039;-65
2023/10/25 02:04:42;;;;;;;18.33;9.15;;;10.20;99.90;;;;;;5109359;28;20055;-66
2023/10/25 02:07:07;;;;;;;20.48;10.27;;;10.20;99.90;;;;;;5096318;28;20430;-65
2023/10/25 02:09:33;;;;;;;21.60;10.32;;;10.20;99.90;;;;;;5106596;28;20089;-65
2023/10/25 02:11:59;;;;;;;21.20;10.18;;;10.20;99.90;;;;;;5102940;28;20030;-65
2023/10/25 02:14:25;;;;;;;21.90;10.90;;;10.20;99.90;;;;;;5099098;28;20036;-65
2023/10/25 02:16:50;;;;;;;24.42;12.23;;;10.10;99.90;;;;;;5110740;28;20425;-65
2023/10/25 02:19:16;;;;;;;24.92;12.27;;;10.10;99.90;;;;;;5101390;28;20481;-65
2023/10/25 02:21:42;;;;;;;28.90;12.43;;;10.10;99.90;;;;;;5109321;28;20077;-65
2023/10/25 02:24:10;;;;;;;21.58;12.45;;;10.10;99.90;;;;;;5108235;28;20028;-66
2023/10/25 02:26:36;;;;;;;24.65;12.85;;;10.00;99.90;;;;;;5101471;28;20387;-65
2023/10/25 02:29:02;;;;;;;26.35;13.57;;;10.00;99.90;;;;;;5112229;28;20542;-66
2023/10/25 02:31:28;;;;;;;23.85;14.80;;;9.90;99.90;;;;;;5102599;28;20024;-65
2023/10/25 02:33:53;;;;;;;23.70;14.15;;;9.90;99.90;;;;;;5107455;28;20040;-65
2023/10/25 02:36:19;;;;;;;25.55;14.98;;;9.80;99.90;;;;;;5109729;28;20471;-67
2023/10/25 02:38:48;;;;;;;25.08;15.07;;;9.80;99.90;;;;;;5100280;28;20028;-65
2023/10/25 02:41:13;;;;;;;25.80;15.02;;;9.80;99.90;;;;;;5083819;28;20020;-65
2023/10/25 02:43:39;;;;;;;29.92;17.10;;;9.70;99.90;;;;;;5109217;28;20393;-65
2023/10/25 02:46:09;;;;;;;31.05;17.10;;;9.70;99.90;;;;;;5107408;28;20477;-65
2023/10/25 02:48:36;;;;;;;26.35;16.70;;;9.70;99.90;;;;;;5101496;28;20073;-65
2023/10/25 02:51:03;;;;;;;29.63;17.02;;;9.70;99.90;;;;;;5113097;28;20038;-66
2023/10/25 02:53:29;;;;;;;28.88;17.90;;;9.60;99.90;;;;;;5096052;28;20124;-65
2023/10/25 02:56:01;;;;;;;31.02;18.33;;;9.60;99.90;;;;;;5105671;28;20444;-66
2023/10/25 02:58:27;;;;;;;;;;;9.60;99.90;;;;;;5102919;28;20160;-66
2023/10/25 03:00:52;;;;;;;27.92;17.98;;;9.60;99.90;;;;;;5113024;28;19943;-65
2023/10/25 03:03:18;;;;;;;33.22;19.67;;;9.50;99.90;;;;;;5100471;28;20020;-66
2023/10/25 03:05:43;;;;;;;27.38;18.13;;;9.50;99.90;;;;;;5108715;28;20039;-65
2023/10/25 03:08:09;;;;;;;29.65;18.90;;;9.50;99.90;;;;;;5107765;28;20100;-65
2023/10/25 03:10:34;;;;;;;27.90;18.75;;;9.50;99.90;;;;;;5100915;28;20491;-66
2023/10/25 03:13:00;;;;;;;33.17;19.60;;;9.50;99.90;;;;;;5112308;28;20387;-65
2023/10/25 03:15:26;;;;;;;35.40;20.02;;;9.50;99.90;;;;;;5101567;28;20177;-65
2023/10/25 03:17:51;;;;;;;30.40;20.10;;;9.50;99.90;;;;;;5107041;28;20032;-65
2023/10/25 03:20:17;;;;;;;32.03;19.33;;;9.50;99.90;;;;;;5095808;28;20025;-66
2023/10/25 03:22:42;;;;;;;38.60;19.98;;;9.50;99.90;;;;;;5112164;28;20081;-65
2023/10/25 03:25:08;;;;;;;30.05;19.08;;;9.50;99.90;;;;;;5098903;28;20019;-65
2023/10/25 03:27:34;;;;;;;32.15;19.48;;;9.50;99.90;;;;;;5108579;28;20028;-65
2023/10/25 03:30:00;;;;;;;31.75;18.92;;;9.40;99.90;;;;;;5105979;28;20028;-65
2023/10/25 03:32:25;;;;;;;39.72;20.92;;;9.40;99.90;;;;;;5101969;28;20029;-65
2023/10/25 03:34:51;;;;;;;31.52;20.77;;;9.40;99.90;;;;;;5112400;28;20031;-66
2023/10/25 03:37:17;;;;;;;31.15;20.35;;;9.40;99.90;;;;;;5099503;28;20023;-65
2023/10/25 03:39:42;;;;;;;33.28;20.60;;;9.40;99.90;;;;;;5107436;28;20028;-65
2023/10/25 03:42:08;;;;;;;38.05;20.50;;;9.40;99.90;;;;;;5106858;28;20474;-65
2023/10/25 03:44:33;;;;;;;33.97;20.67;;;9.40;99.90;;;;;;5100592;28;20024;-65
2023/10/25 03:46:59;;;;;;;32.85;19.30;;;9.30;99.90;;;;;;5112051;28;20028;-65
2023/10/25 03:49:25;;;;;;;33.97;21.23;;;9.30;99.90;;;;;;5100548;28;20568;-65
2023/10/25 03:51:50;;;;;;;31.45;19.23;;;9.30;99.90;;;;;;5106266;28;20028;-65
2023/10/25 03:54:16;;;;;;;29.83;19.08;;;9.30;99.90;;;;;;5094466;28;20087;-65
2023/10/25 03:56:42;;;;;;;33.92;20.83;;;9.30;99.90;;;;;;5111282;28;20028;-65
2023/10/25 03:59:08;;;;;;;36.47;20.42;;;9.30;99.90;;;;;;5098427;28;20088;-66
2023/10/25 04:01:34;;;;;;;32.13;20.73;;;9.20;99.90;;;;;;5108670;28;20038;-66
2023/10/25 04:03:59;;;;;;;34.08;20.67;;;9.30;99.90;;;;;;5105559;28;20444;-66
2023/10/25 04:06:25;;;;;;;33.83;20.08;;;9.20;99.90;;;;;;5101498;28;20357;-65
2023/10/25 04:08:51;;;;;;;32.65;19.92;;;9.20;99.90;;;;;;5111414;28;20031;-65
2023/10/25 04:11:16;;;;;;;34.88;19.75;;;9.20;99.90;;;;;;5099184;28;20015;-65
2023/10/25 04:13:43;;;;;;;33.33;19.60;;;9.20;99.90;;;;;;5107368;28;20139;-66
2023/10/25 04:16:09;;;;;;;32.38;19.27;;;9.20;99.90;;;;;;5106455;28;20027;-64
2023/10/25 04:18:35;;;;;;;34.47;19.30;;;9.20;99.90;;;;;;5099982;28;20027;-65
2023/10/25 04:21:01;;;;;;;33.42;21.20;;;9.10;99.90;;;;;;5111365;28;20043;-66
2023/10/25 04:23:29;;;;;;;35.38;20.45;;;9.10;99.90;;;;;;5100122;28;20031;-65
2023/10/25 04:26:12;;;;;;;38.00;20.88;;;9.10;99.90;;;;;;5105383;28;20028;-65
2023/10/25 04:28:39;;;;;;;30.27;20.10;;;9.10;99.90;;;;;;5110162;28;20071;-65
2023/10/25 04:31:07;;;;;;;33.40;20.45;;;9.10;99.90;;;;;;5097767;28;20086;-65
2023/10/25 04:33:32;;;;;;;33.17;19.88;;;9.10;99.90;;;;;;5108238;28;20063;-65
2023/10/25 04:35:58;;;;;;;35.03;20.90;;;9.10;99.90;;;;;;5104456;28;20440;-65
2023/10/25 04:38:24;;;;;;;36.83;21.27;;;9.10;99.90;;;;;;5100739;28;20024;-65
2023/10/25 04:40:51;;;;;;;36.72;21.33;;;9.10;99.90;;;;;;5110474;28;20020;-65
2023/10/25 04:43:17;;;;;;;34.85;21.02;;;9.10;99.90;;;;;;5094148;28;20020;-65
2023/10/25 04:45:43;;;;;;;33.60;21.17;;;9.10;99.90;;;;;;5102018;28;20353;-65
2023/10/25 04:48:08;;;;;;;34.88;20.98;;;9.10;99.90;;;;;;5103061;28;20024;-65
2023/10/25 04:50:36;;;;;;;36.42;21.25;;;9.10;99.90;;;;;;5109522;28;20106;-65
2023/10/25 04:53:02;;;;;;;34.85;22.40;;;9.10;99.90;;;;;;5094906;28;20078;-65
2023/10/25 04:55:29;;;;;;;32.35;19.67;;;9.10;99.90;;;;;;5099774;28;20459;-65
2023/10/25 04:57:56;;;;;;;33.30;22.35;;;9.10;99.90;;;;;;5104871;28;20061;-66
2023/10/25 05:00:22;;;;;;;34.67;21.05;;;9.10;99.90;;;;;;5107669;28;20038;-65
2023/10/25 05:02:48;;;;;;;33.30;21.13;;;9.10;99.90;;;;;;5097189;28;20032;-66
2023/10/25 05:05:13;;;;;;;39.38;21.98;;;9.10;99.90;;;;;;5110014;28;20138;-66
2023/10/25 05:07:39;;;;;;;33.67;21.35;;;9.20;99.90;;;;;;5101450;28;20375;-65
2023/10/25 05:10:06;;;;;;;35.65;19.42;;;9.10;99.90;;;;;;5103332;28;20349;-66
2023/10/25 05:12:43;;;;;;;30.73;20.23;;;9.20;99.90;;;;;;5108425;28;20027;-65
2023/10/25 05:15:17;;;;;;;31.13;20.80;;;9.20;99.90;;;;;;5097370;28;20030;-65
2023/10/25 05:17:44;;;;;;;32.78;20.80;;;9.20;99.90;;;;;;5105750;28;20472;-65
2023/10/25 05:20:10;;;;;;;30.52;20.50;;;9.20;99.90;;;;;;5105318;28;20034;-66
2023/10/25 05:22:38;;;;;;;31.27;20.10;;;9.20;99.90;;;;;;5098245;28;20387;-65
2023/10/25 05:25:06;;;;;;;35.88;20.60;;;9.30;99.90;;;;;;5110218;28;20034;-66
2023/10/25 05:27:33;;;;;;;34.47;21.17;;;9.30;99.90;;;;;;5099853;28;20031;-65
2023/10/25 05:30:03;;;;;;;33.35;21.55;;;9.40;99.90;;;;;;5103798;28;20062;-66
2023/10/25 05:32:30;;;;;;;33.72;21.40;;;9.50;99.90;;;;;;5108096;28;20032;-65
2023/10/25 05:34:57;;;;;;;37.85;21.10;;;9.50;99.90;;;;;;5110330;28;20027;-65
2023/10/25 05:37:22;;;;;;;31.55;20.20;;;9.50;99.90;;;;;;5113834;27;20058;-66
2023/10/25 05:39:49;;;;;;;29.38;19.30;;;9.60;99.90;;;;;;5113687;28;20023;-65
2023/10/25 05:42:19;;;;;;;28.77;18.67;;;9.60;99.90;;;;;;5113487;28;20072;-65
2023/10/25 05:44:45;;;;;;;32.33;20.02;;;9.60;99.90;;;;;;5111321;28;20027;-65
2023/10/25 05:47:11;;;;;;;33.30;18.90;;;9.70;99.90;;;;;;5110277;28;20020;-66
2023/10/25 05:49:37;;;;;;;32.50;20.33;;;9.70;99.90;;;;;;5105993;28;20046;-65
2023/10/25 05:52:03;;;;;;;29.27;18.23;;;9.80;99.90;;;;;;5103778;28;20034;-65
2023/10/25 05:54:29;;;;;;;25.60;17.42;;;9.80;99.90;;;;;;5112832;28;20078;-65
2023/10/25 05:56:55;;;;;;;28.60;17.98;;;9.80;99.90;;;;;;5096578;28;20028;-67
2023/10/25 05:59:21;;;;;;;29.73;17.35;;;9.90;99.90;;;;;;5108299;28;20043;-66
2023/10/25 06:02:02;;;;;;;31.50;18.30;;;9.90;99.90;;;;;;5101716;28;20016;-65
2023/10/25 06:04:30;;;;;;;27.40;17.80;;;9.90;99.90;;;;;;5099452;28;20028;-65
2023/10/25 06:06:55;;;;;;;31.27;17.13;;;9.90;99.90;;;;;;5109998;28;20061;-65
2023/10/25 06:09:21;;;;;;;30.85;19.50;;;9.90;99.90;;;;;;5097898;28;20375;-64
2023/10/25 06:11:47;;;;;;;24.33;16.92;;;9.90;99.90;;;;;;5104716;28;20020;-67
2023/10/25 06:14:13;;;;;;;28.70;18.05;;;10.00;99.90;;;;;;5105306;28;20051;-67
2023/10/25 06:16:38;;;;;;;25.98;16.88;;;10.00;99.90;;;;;;5097789;28;20039;-65
2023/10/25 06:19:04;;;;;;;27.65;17.70;;;10.00;99.90;;;;;;5109872;28;20397;-65
2023/10/25 06:21:29;;;;;;;25.30;15.55;;;10.00;99.90;;;;;;5090300;28;20036;-65
2023/10/25 06:23:55;;;;;;;25.70;16.50;;;10.10;99.90;;;;;;5086686;28;20020;-67
2023/10/25 06:26:20;;;;;;;25.67;15.40;;;10.10;99.90;;;;;;5084736;28;20042;-67
2023/10/25 06:28:46;;;;;;;25.95;15.07;;;10.10;99.90;;;;;;5093075;28;20409;-65
2023/10/25 06:31:14;;;;;;;27.73;16.10;;;10.10;99.90;;;;;;5089842;28;20016;-65
2023/10/25 06:33:41;;;;;;;27.13;16.58;;;10.10;99.90;;;;;;5097124;28;20040;-67
2023/10/25 06:36:07;;;;;;;27.63;15.35;;;10.10;99.90;;;;;;5101650;28;20091;-66
2023/10/25 06:38:34;;;;;;;101.68;25.02;;;10.10;99.90;;;;;;5107993;28;20032;-66
2023/10/25 06:41:00;;;;;;;26.70;14.15;;;10.10;99.90;;;;;;5095709;28;20064;-66
2023/10/25 06:43:28;;;;;;;24.83;15.50;;;10.10;99.90;;;;;;5107200;28;20024;-66
2023/10/25 06:45:54;;;;;;;22.38;14.02;;;10.10;99.90;;;;;;5092409;28;20024;-66
2023/10/25 06:48:19;;;;;;;25.83;14.75;;;10.20;99.90;;;;;;5090890;28;20106;-66
2023/10/25 06:50:51;;;;;;;24.80;13.65;;;10.10;99.90;;;;;;5109407;28;20021;-66
2023/10/25 06:53:17;;;;;;;24.45;13.88;;;10.10;99.90;;;;;;5084298;28;20044;-66
2023/10/25 06:55:43;;;;;;;23.42;13.65;;;10.20;99.90;;;;;;5104499;28;20395;-66
2023/10/25 06:58:10;;;;;;;22.85;13.30;;;10.20;99.90;;;;;;5093782;28;20063;-66
2023/10/25 07:00:37;;;;;;;24.25;14.55;;;10.20;99.90;;;;;;5098408;28;20483;-66
2023/10/25 07:03:03;;;;;;;21.98;13.00;;;10.20;99.90;;;;;;5110724;28;20032;-66
2023/10/25 07:05:30;;;;;;;27.67;14.80;;;10.20;99.90;;;;;;5093848;28;20067;-66
2023/10/25 07:07:56;;;;;;;25.27;13.43;;;10.30;99.90;;;;;;5087150;28;20028;-66
2023/10/25 07:10:23;;;;;;;26.33;12.73;;;10.30;99.90;;;;;;5085714;28;20115;-66
2023/10/25 07:12:49;;;;;;;22.70;11.05;;;10.30;99.90;;;;;;5082982;28;20041;-66
2023/10/25 07:15:15;;;;;;;21.90;11.00;;;10.30;99.90;;;;;;5093582;28;20026;-66
2023/10/25 07:17:44;;;;;;;92.35;18.17;;;10.30;99.90;;;;;;5092324;28;20028;-66
2023/10/25 07:20:11;;;;;;;19.92;11.32;;;10.40;99.90;;;;;;5106275;28;20032;-66
2023/10/25 07:22:38;;;;;;;204.18;31.45;;;10.40;99.90;;;;;;5100068;28;20368;-66
2023/10/25 07:25:07;;;;;;;26.17;12.90;;;10.40;99.90;;;;;;5109789;28;20456;-66
2023/10/25 07:27:32;;;;;;;21.95;12.93;;;10.50;99.90;;;;;;5103086;28;20040;-66
2023/10/25 07:29:58;;;;;;;21.20;11.75;;;10.50;99.90;;;;;;5105837;28;20037;-66
2023/10/25 07:32:24;;;;;;;20.35;11.20;;;10.50;99.90;;;;;;5107328;28;20028;-66
2023/10/25 07:34:50;;;;;;;21.02;10.77;;;10.60;99.90;;;;;;5099114;28;20024;-66
2023/10/25 07:37:16;;;;;;;232.95;41.40;;;10.60;99.90;;;;;;5094885;28;20031;-66
2023/10/25 07:39:41;;;;;;;23.77;12.80;;;10.60;99.90;;;;;;5105423;28;20364;-66
2023/10/25 07:42:07;;;;;;;23.70;12.50;;;10.60;99.90;;;;;;5084301;28;20105;-66
2023/10/25 07:44:34;;;;;;;23.60;11.18;;;10.70;99.90;;;;;;5091990;28;20456;-66
2023/10/25 07:47:00;;;;;;;24.52;11.35;;;10.60;99.90;;;;;;5103919;28;20186;-66
2023/10/25 07:49:25;;;;;;;16.42;10.27;;;10.70;99.90;;;;;;5089089;28;20126;-66
2023/10/25 07:51:56;;;;;;;15.48;9.52;;;10.70;99.90;;;;;;5105174;28;20072;-66
2023/10/25 07:54:22;;;;;;;17.63;9.30;;;10.70;99.90;;;;;;5100725;28;20139;-66
2023/10/25 07:56:48;;;;;;;18.55;9.38;;;10.70;99.90;;;;;;5111679;28;20122;-66
2023/10/25 07:59:13;;;;;;;21.92;10.35;;;10.70;99.90;;;;;;5090848;28;20386;-66
2023/10/25 08:01:39;;;;;;;20.90;9.85;;;10.80;99.90;;;;;;5106558;28;20456;-66
2023/10/25 08:04:08;;;;;;;17.77;9.48;;;10.80;99.90;;;;;;5105909;28;20119;-65
2023/10/25 08:06:34;;;;;;;18.75;9.93;;;10.80;99.90;;;;;;5100171;28;20036;-66
2023/10/25 08:09:00;;;;;;;22.23;10.43;;;10.90;99.90;;;;;;5111519;28;20023;-66
2023/10/25 08:11:25;;;;;;;22.35;10.60;;;10.90;99.90;;;;;;5100399;28;20380;-66
2023/10/25 08:13:51;;;;;;;18.10;9.93;;;10.90;99.90;;;;;;5105737;28;20434;-65
2023/10/25 08:16:17;;;;;;;19.33;9.15;;;11.00;99.90;;;;;;5107399;28;20042;-66
2023/10/25 08:18:42;;;;;;;20.20;9.60;;;11.00;99.90;;;;;;5098307;28;20031;-66
2023/10/25 08:21:16;;;;;;;18.42;9.43;;;11.10;99.90;;;;;;5111574;28;20024;-66
2023/10/25 08:23:41;;;;;;;18.80;9.68;;;11.10;99.90;;;;;;5102602;28;20047;-66
2023/10/25 08:26:07;;;;;;;22.15;10.20;;;11.20;99.90;;;;;;5103831;28;20067;-66
2023/10/25 08:28:33;;;;;;;22.27;9.38;;;11.20;99.90;;;;;;5109683;28;20449;-66
2023/10/25 08:30:58;;;;;;;20.48;9.50;;;11.30;99.90;;;;;;5097859;28;20036;-66
2023/10/25 08:33:24;;;;;;;20.42;9.43;;;11.30;99.90;;;;;;5109108;28;20064;-66
2023/10/25 08:35:59;;;;;;;19.30;9.10;;;11.40;99.90;;;;;;5103201;28;20074;-66
2023/10/25 08:38:25;;;;;;;17.75;8.27;;;11.40;99.90;;;;;;5100930;28;20130;-66
2023/10/25 08:40:50;;;;;;;19.23;8.45;;;11.50;99.90;;;;;;5110947;28;20102;-66
2023/10/25 08:43:16;;;;;;;14.10;8.40;;;11.50;99.90;;;;;;5094240;28;20357;-66
2023/10/25 08:45:44;;;;;;;15.70;7.90;;;11.60;99.90;;;;;;5101872;28;20464;-66
2023/10/25 08:48:09;;;;;;;18.15;7.95;;;11.60;99.90;;;;;;5102702;28;20028;-66
2023/10/25 08:50:35;;;;;;;19.42;8.80;;;11.60;99.90;;;;;;5109634;28;20024;-66
2023/10/25 08:53:01;;;;;;;18.75;8.45;;;11.60;99.90;;;;;;5094978;28;20055;-66
2023/10/25 08:55:26;;;;;;;15.65;8.15;;;11.70;99.90;;;;;;5099811;28;20073;-66
2023/10/25 08:57:56;;;;;;;20.50;8.25;;;11.70;99.90;;;;;;5105068;28;20095;-66
2023/10/25 09:00:23;;;;;;;18.20;8.73;;;11.70;99.90;;;;;;5107265;28;20034;-66
2023/10/25 09:02:49;;;;;;;15.25;7.55;;;11.80;99.90;;;;;;5096615;28;20028;-66
2023/10/25 09:05:15;;;;;;;13.52;7.43;;;11.80;99.90;;;;;;5110033;28;20024;-67
2023/10/25 09:07:40;;;;;;;16.80;8.32;;;11.90;99.90;;;;;;5101475;28;20035;-66
2023/10/25 09:10:22;;;;;;;15.88;7.70;;;12.00;99.90;;;;;;5102942;28;20025;-66
2023/10/25 09:12:48;;;;;;;17.77;7.45;;;12.20;99.90;;;;;;5110378;28;20475;-66
2023/10/25 09:15:13;;;;;;;14.93;6.88;;;12.40;99.90;;;;;;5097479;28;20118;-66
2023/10/25 09:17:39;;;;;;;14.32;6.88;;;12.60;99.90;;;;;;5106517;28;20036;-66
2023/10/25 09:20:08;;;;;;;12.45;6.65;;;12.70;99.90;;;;;;5104504;28;20072;-66
2023/10/25 09:22:34;;;;;;;14.23;5.97;;;12.90;99.90;;;;;;5099055;28;20098;-66
2023/10/25 09:25:01;;;;;;;15.45;6.22;;;13.00;99.90;;;;;;5110201;28;20055;-65
2023/10/25 09:27:28;;;;;;;13.23;6.65;;;13.20;99.90;;;;;;5098962;28;20486;-67
2023/10/25 09:30:09;;;;;;;14.05;7.57;;;13.30;99.90;;;;;;5103855;28;20024;-66
2023/10/25 09:32:36;;;;;;;16.13;6.38;;;13.30;99.90;;;;;;5108988;28;20440;-66
2023/10/25 09:35:03;;;;;;;13.05;5.75;;;13.40;99.90;;;;;;5096840;28;20028;-66
2023/10/25 09:37:28;;;;;;;14.63;5.78;;;13.50;99.90;;;;;;5107773;28;20054;-66
2023/10/25 09:39:54;;;;;;;17.02;6.13;;;13.60;99.90;;;;;;5102814;28;20028;-66
2023/10/25 09:42:25;;;;;;;14.10;5.90;;;13.60;99.90;;;;;;5110478;28;20114;-66
2023/10/25 09:45:00;;;;;;;13.88;5.10;;;13.60;99.90;;;;;;5096787;28;20024;-66
2023/10/25 09:47:31;;;;;;;12.23;5.03;;;13.70;99.90;;;;;;5108179;28;20043;-66
2023/10/25 09:50:04;;;;;;;11.48;5.40;;;13.70;99.90;;;;;;5103528;28;20051;-66
2023/10/25 09:52:34;;;;;;;12.60;5.38;;;13.80;99.90;;;;;;5098757;28;20075;-66
2023/10/25 09:55:12;;;;;;;16.90;5.90;;;13.80;99.90;;;;;;5094961;28;20028;-66
2023/10/25 09:57:38;;;;;;;14.18;5.78;;;13.80;99.90;;;;;;5106222;28;20036;-66
2023/10/25 10:00:08;;;;;;;14.02;5.68;;;13.80;99.90;;;;;;5104061;28;20360;-66
2023/10/25 10:02:53;;;;;;;166.48;20.17;;;13.70;99.90;;;;;;5098156;28;20028;-66
2023/10/25 10:05:30;;;;;;;14.98;5.35;;;13.70;99.90;;;;;;5081734;28;20058;-66
2023/10/25 10:08:05;;;;;;;14.48;5.47;;;13.60;99.90;;;;;;5102498;28;20028;-66
2023/10/25 10:10:44;;;;;;;10.30;5.05;;;13.60;99.90;;;;;;5107999;28;20028;-66
2023/10/25 10:13:15;;;;;;;12.32;5.53;;;13.50;99.90;;;;;;5096650;28;20139;-67
2023/10/25 10:16:02;;;;;;;10.60;5.53;;;13.40;99.90;;;;;;5105613;28;20024;-66
2023/10/25 10:18:32;;;;;;;13.55;5.72;;;13.20;99.90;;;;;;5107107;28;20403;-66
2023/10/25 10:21:14;;;;;;;10.82;6.53;;;13.00;99.90;;;;;;5096839;28;20070;-66
2023/10/25 10:23:50;;;;;;;18.00;7.35;;;12.90;99.90;;;;;;5104802;28;20380;-66
2023/10/25 10:26:44;;;;;;;15.75;8.10;;;12.70;99.90;;;;;;5105703;28;20024;-65
2023/10/25 10:29:31;;;;;;;16.65;8.57;;;12.60;99.90;;;;;;5096302;28;20024;-66
2023/10/25 10:31:58;;;;;;;17.88;7.82;;;12.50;99.90;;;;;;5103399;28;20032;-66
2023/10/25 10:34:47;;;;;;;16.20;8.23;;;12.40;99.90;;;;;;5106125;28;20039;-65
2023/10/25 10:37:24;;;;;;;15.35;7.82;;;12.40;99.90;;;;;;5080511;28;20076;-66
2023/10/25 10:39:55;;;;;;;17.00;8.23;;;12.40;99.90;;;;;;5108463;28;20036;-66
2023/10/25 10:42:25;;;;;;;19.30;8.07;;;12.40;99.90;;;;;;5110250;28;20063;-66
2023/10/25 10:44:51;;;;;;;16.63;7.60;;;12.40;99.90;;;;;;5099849;28;20810;-66
2023/10/25 10:47:21;;;;;;;16.58;8.85;;;12.30;99.90;;;;;;5112692;28;20031;-66
2023/10/25 10:49:56;;;;;;;17.65;8.65;;;12.30;99.90;;;;;;5105323;28;20030;-66
2023/10/25 10:52:22;;;;;;;19.27;9.77;;;12.30;99.90;;;;;;5103289;28;20407;-67
2023/10/25 10:54:48;;;;;;;20.92;9.15;;;12.20;99.90;;;;;;5096413;28;20043;-66
2023/10/25 10:57:14;;;;;;;19.95;8.77;;;12.10;99.90;;;;;;5112880;28;20099;-67
2023/10/25 10:59:49;;;;;;;16.20;8.07;;;12.10;99.90;;;;;;5104182;28;20024;-68
2023/10/25 11:02:16;;;;;;;13.07;7.95;;;12.00;99.90;;;;;;5104590;28;20044;-68
2023/10/25 11:04:44;;;;;;;19.33;9.60;;;12.00;99.90;;;;;;5112336;28;20460;-67
2023/10/25 11:07:10;;;;;;;15.38;8.75;;;12.00;99.90;;;;;;5099798;28;20447;-67
2023/10/25 11:09:35;;;;;;;14.75;8.20;;;11.90;99.90;;;;;;5109548;28;20024;-68
2023/10/25 11:12:06;;;;;;;23.48;11.38;;;11.90;99.90;;;;;;5106698;28;20124;-67
2023/10/25 11:14:40;;;;;;;19.23;9.80;;;11.90;99.90;;;;;;5101450;28;20081;-67
2023/10/25 11:17:05;;;;;;;15.27;7.78;;;11.90;99.90;;;;;;5112892;28;20028;-67
2023/10/25 11:19:34;;;;;;;16.02;8.18;;;11.90;99.90;;;;;;5102164;28;20119;-67
2023/10/25 11:22:00;;;;;;;17.23;8.70;;;12.00;99.90;;;;;;5106024;28;20036;-67
2023/10/25 11:24:26;;;;;;;16.98;9.02;;;11.90;99.90;;;;;;5108921;28;20032;-67
2023/10/25 11:26:55;;;;;;;15.30;8.95;;;11.90;99.90;;;;;;5097258;28;20030;-67
2023/10/25 11:29:21;;;;;;;18.20;10.25;;;11.90;99.90;;;;;;5109420;28;20042;-67
2023/10/25 11:31:49;;;;;;;18.35;9.85;;;11.80;99.90;;;;;;5102541;28;20020;-67
2023/10/25 11:34:19;;;;;;;21.88;10.18;;;11.90;99.90;;;;;;5101712;28;20032;-67
2023/10/25 11:36:46;;;;;;;21.20;10.85;;;11.90;99.90;;;;;;5110378;28;20519;-67
2023/10/25 11:39:12;;;;;;;23.45;11.60;;;11.90;99.90;;;;;;5080845;28;20061;-67
2023/10/25 11:41:37;;;;;;;21.77;11.70;;;11.80;99.90;;;;;;5107003;28;20016;-67
2023/10/25 11:44:03;;;;;;;23.20;12.70;;;11.80;99.90;;;;;;5093942;28;20024;-67
2023/10/25 11:46:40;;;;;;;22.77;13.23;;;11.90;99.90;;;;;;5108872;28;20027;-67
2023/10/25 11:49:06;;;;;;;36.15;32.25;;;11.90;99.90;;;;;;5097344;28;20059;-67
2023/10/25 11:51:33;;;;;;;19.92;12.60;;;11.90;99.90;;;;;;5108160;28;20074;-67
2023/10/25 11:54:00;;;;;;;23.00;15.43;;;11.90;99.90;;;;;;5095048;28;20492;-67
2023/10/25 11:56:26;;;;;;;27.63;15.07;;;11.90;99.90;;;;;;5109506;28;20024;-67
2023/10/25 11:58:51;;;;;;;26.17;15.00;;;11.90;99.90;;;;;;5098562;28;20157;-67
2023/10/25 12:01:18;;;;;;;25.27;15.30;;;11.90;99.90;;;;;;5111320;28;20345;-67
2023/10/25 12:03:45;;;;;;;22.77;15.15;;;12.00;99.90;;;;;;5102992;28;20020;-68
2023/10/25 12:06:11;;;;;;;37.53;17.02;;;12.00;99.90;;;;;;5103739;28;20032;-67
2023/10/25 12:08:41;;;;;;;24.42;14.60;;;12.00;99.90;;;;;;5110738;28;20030;-68
2023/10/25 12:11:12;;;;;;;35.20;14.07;;;12.00;99.90;;;;;;5098578;27;20031;-67
2023/10/25 12:13:39;;;;;;;42.22;14.88;;;12.00;99.90;;;;;;5108208;28;20129;-68
2023/10/25 12:16:06;;;;;;;39.38;14.00;;;11.90;99.90;;;;;;5106143;28;20039;-68
2023/10/25 12:18:33;;;;;;;21.42;12.65;;;11.90;99.90;;;;;;5100137;28;20030;-68
2023/10/25 12:21:06;;;;;;;485.30;71.13;;;11.90;99.90;;;;;;5111674;28;20027;-68
2023/10/25 12:23:32;;;;;;;139.98;28.13;;;12.00;99.90;;;;;;5101320;28;20114;-67
2023/10/25 12:25:59;;;;;;;20.73;10.70;;;12.00;99.90;;;;;;5104983;28;20060;-67
2023/10/25 12:28:25;;;;;;;20.02;10.55;;;12.00;99.90;;;;;;5108701;28;20028;-67
2023/10/25 12:30:51;;;;;;;19.48;11.43;;;12.00;99.90;;;;;;5098005;28;20028;-67
2023/10/25 12:33:17;;;;;;;22.30;11.35;;;12.00;99.90;;;;;;5110719;28;20028;-67
2023/10/25 12:35:43;;;;;;;19.52;10.05;;;12.00;99.90;;;;;;5102650;28;20037;-67